Airfield :
LOGIN :

Register | Disclaimer

   EN    FR    IT 

 










Legend :    VFR   Marginal VFR   IFR   Intensive IFR   Very Intensive IFR
Visi :
Ceiling :
>= 8 km
>= 3000ft
5 to 8 km
1000 to 3000 ft
1500m to 5 km
500 to 1000 ft
800 to 1500m
200 to 500 ft
< 800m
< 200 ft
Symbols :   Thunderstorms  Fog  Heavy snow  Heavy precipitations  Wind > 20 kt
SIGMETs :     Misc.  Thunderstorms  Icing  Turbulence  Mountain Waves  Volcanic Ashes







- Airport Elevation : 1197 ft
- IATA code : SPM


ETAD - Spangdahlem Ab

CURRENT METAR :
  • 220856Z AUTO 21007KT 9999 OVC012 07/05 A2987 RMK AO2 SLP113 T00690049 51005 TSNO $

EXPIRED METARs :
  • 220756Z 22011G18KT 9999 OVC012 07/05 A2986 RMK AO2A SLP110 T00680048 TSNO $
  • 220656Z AUTO 21012KT 9999 OVC013 07/05 A2986 RMK AO2 CIG 012 RWY05 SLP112 T00680051 TSNO $

TAF AMD TAF ETAD
Valid from the 22 at 08:00 until the 23 at 09:00 UTC


220825Z 2208/2309 22010G15KT 9999 BKN012 QNH2982INS
BECMG 2212/2213 23009KT 9999 SCT020 QNH2969INS
BECMG 2307/2308 20012G18KT 9999 FEW080 QNH2969INS TX11/2213Z TN05/2222Z
No reported NOTAMs for that airfield.



MET'MAP, your aeronautical weather chart ! - Copyright ORBIFLY December 2007 - Disclaimer

ORBIFLY MET'MAP TEAM :

Programming & Development : Alexandra Zaïnal
Concept & Development : Baudouin d'Aumeries
Co-Development & Prog : Marc-Olivier Méhu
Technical & hardware support : Manuel Goepfert

Contact : metmap@orbifly.com




SOURCES & CREDITS :

   NOAA